福島空港の過去48時間の天気

福島空港 (Fukushima)

現在時刻: 9/19 07:27 JST (9/18 22:27 UTC) 以下の時間は現地時間です。

過去48時間のMETAR気象情報
時間 風向 風速(m/s) 視程 気温(℃) 湿度(%) 気圧(hPa) 天気現象
19 07:00 北北東 4 10km以上 19 94 1014
19 06:40 北北東 4 10km以上 18 100 1014
RJSF 182200Z 03007KT 9999 FEW007 19/18 Q1014
RJSF 182140Z 03007KT 9999 FEW005 18/18 Q1014 RMK 1ST005 A2995